createdAt,value
2019-04-29T00:00:01.745Z,90.70
2019-04-29T00:02:33.435Z,90.80
2019-04-29T00:05:02.451Z,90.80
2019-04-29T00:07:31.354Z,90.70
2019-04-29T00:10:00.568Z,90.50
2019-04-29T00:12:30.653Z,90.80
2019-04-29T00:15:06.566Z,89.70
2019-04-29T00:17:45.256Z,89.30
2019-04-29T00:20:21.035Z,89.10
2019-04-29T00:22:49.823Z,89.10
2019-04-29T00:25:19.053Z,90.40
2019-04-29T00:27:48.895Z,90.00
2019-04-29T00:30:21.448Z,89.70
2019-04-29T00:32:50.434Z,88.90
2019-04-29T00:35:19.450Z,88.00
2019-04-29T00:38:10.278Z,88.20
2019-04-29T00:40:58.287Z,89.20
2019-04-29T00:43:35.410Z,89.40
2019-04-29T00:46:04.671Z,89.50
2019-04-29T00:48:33.526Z,89.70
2019-04-29T00:51:02.515Z,89.80
2019-04-29T00:53:31.486Z,90.00
2019-04-29T00:56:02.871Z,90.10
2019-04-29T00:58:31.828Z,90.40
2019-04-29T01:01:00.787Z,88.80
2019-04-29T01:03:29.743Z,88.20
2019-04-29T01:05:59.173Z,87.90
2019-04-29T01:08:28.147Z,87.20
2019-04-29T01:10:57.599Z,86.90
2019-04-29T01:13:26.467Z,86.90
2019-04-29T01:15:55.484Z,87.00
2019-04-29T01:18:24.514Z,86.50
2019-04-29T01:20:53.553Z,86.40
2019-04-29T01:23:22.414Z,86.40
2019-04-29T01:25:55.758Z,86.20
2019-04-29T01:28:29.758Z,86.00
2019-04-29T01:31:04.742Z,86.50
2019-04-29T01:33:33.555Z,86.20
2019-04-29T01:36:21.980Z,86.20
2019-04-29T01:38:52.367Z,86.40
2019-04-29T01:41:24.190Z,86.40
2019-04-29T01:44:00.891Z,86.90
2019-04-29T01:46:29.821Z,86.60
2019-04-29T01:48:58.666Z,86.80
2019-04-29T01:51:29.959Z,86.30
2019-04-29T01:53:58.827Z,86.40
2019-04-29T01:56:27.729Z,86.40
2019-04-29T01:58:56.575Z,86.80
2019-04-29T02:01:25.558Z,86.90
2019-04-29T02:03:54.397Z,86.40
2019-04-29T02:06:23.255Z,86.40
2019-04-29T02:08:53.758Z,86.50
2019-04-29T02:11:22.625Z,86.70
2019-04-29T02:13:51.524Z,87.00
2019-04-29T02:16:20.387Z,87.50
2019-04-29T02:18:49.291Z,88.30
2019-04-29T02:21:18.362Z,88.80
2019-04-29T02:23:56.564Z,88.70
2019-04-29T02:26:25.398Z,89.00
2019-04-29T02:28:55.262Z,88.70
2019-04-29T02:31:40.785Z,88.60
2019-04-29T02:34:09.755Z,88.80
2019-04-29T02:36:38.641Z,89.10
2019-04-29T02:39:28.227Z,89.20
2019-04-29T02:42:16.635Z,89.90
2019-04-29T02:44:45.585Z,90.30
2019-04-29T02:47:14.433Z,90.40
2019-04-29T02:49:43.346Z,90.40
2019-04-29T02:52:12.142Z,90.70
2019-04-29T02:54:41.372Z,90.60
2019-04-29T02:57:18.080Z,90.60
2019-04-29T02:59:50.272Z,90.40
2019-04-29T03:02:36.436Z,90.30
2019-04-29T03:05:25.708Z,90.30
2019-04-29T03:07:54.691Z,90.10
2019-04-29T03:10:23.701Z,90.00
2019-04-29T03:12:52.618Z,90.10
2019-04-29T03:15:33.218Z,90.00
2019-04-29T03:18:02.367Z,89.90
2019-04-29T03:20:36.749Z,89.50
2019-04-29T03:23:13.735Z,89.60
2019-04-29T03:25:42.864Z,89.20
2019-04-29T03:28:11.808Z,89.20
2019-04-29T03:30:40.797Z,89.10
2019-04-29T03:33:09.721Z,88.80
2019-04-29T03:35:38.689Z,89.10
2019-04-29T03:38:07.642Z,89.40
2019-04-29T03:40:36.596Z,89.50
2019-04-29T03:43:05.479Z,89.90
2019-04-29T03:45:37.716Z,90.00
2019-04-29T03:48:06.560Z,90.40
2019-04-29T03:50:35.424Z,90.00
2019-04-29T03:53:04.440Z,90.00
2019-04-29T03:55:40.074Z,90.10
2019-04-29T03:58:08.256Z,90.10
2019-04-29T04:00:37.127Z,90.00
2019-04-29T04:03:16.064Z,90.00
2019-04-29T04:06:19.014Z,90.30
2019-04-29T04:09:05.316Z,90.20
2019-04-29T04:11:22.261Z,90.30
2019-04-29T04:13:51.124Z,90.30
2019-04-29T04:16:47.964Z,90.50
2019-04-29T04:19:17.404Z,90.30
2019-04-29T04:21:46.202Z,90.20
2019-04-29T04:24:15.048Z,90.10
2019-04-29T04:26:44.021Z,90.20
2019-04-29T04:29:13.059Z,90.20
2019-04-29T04:31:41.895Z,90.10
2019-04-29T04:34:10.739Z,89.90
2019-04-29T04:36:39.563Z,89.40
2019-04-29T04:39:09.019Z,89.00
2019-04-29T04:41:37.804Z,89.00
2019-04-29T04:44:06.675Z,88.50
2019-04-29T04:46:35.454Z,88.30
2019-04-29T04:49:04.436Z,88.30
2019-04-29T04:51:33.289Z,88.20
2019-04-29T04:54:02.069Z,88.00
2019-04-29T04:56:31.968Z,87.80
2019-04-29T04:59:00.740Z,88.10
2019-04-29T05:01:29.549Z,88.00
2019-04-29T05:03:58.402Z,87.70
2019-04-29T05:06:27.163Z,87.90
2019-04-29T05:08:56.052Z,88.00
2019-04-29T05:11:24.808Z,88.30
2019-04-29T05:13:53.585Z,87.90
2019-04-29T05:16:22.431Z,87.60
2019-04-29T05:18:51.204Z,87.00
2019-04-29T05:21:20.214Z,87.10
2019-04-29T05:23:49.009Z,87.30
2019-04-29T05:26:17.882Z,87.60
2019-04-29T05:28:46.719Z,87.40
2019-04-29T05:31:15.482Z,87.20
2019-04-29T05:33:44.264Z,87.00
2019-04-29T05:36:29.374Z,86.70
2019-04-29T05:39:20.767Z,86.20
2019-04-29T05:41:49.526Z,86.10
2019-04-29T05:44:28.145Z,85.90
2019-04-29T05:47:01.917Z,85.40
2019-04-29T05:49:55.668Z,84.80
2019-04-29T05:52:39.623Z,84.60
2019-04-29T05:55:09.603Z,84.30
2019-04-29T05:57:39.747Z,83.50
2019-04-29T06:00:09.323Z,83.40
2019-04-29T06:02:38.793Z,82.60
2019-04-29T06:05:08.248Z,82.10
2019-04-29T06:07:37.076Z,80.90
2019-04-29T06:10:06.120Z,81.40
2019-04-29T06:12:35.073Z,82.20
2019-04-29T06:15:04.196Z,82.10
2019-04-29T06:17:32.981Z,82.10
2019-04-29T06:20:01.913Z,81.60
2019-04-29T06:22:30.775Z,82.00
2019-04-29T06:24:59.655Z,82.50
2019-04-29T06:27:28.724Z,82.80
2019-04-29T06:29:58.608Z,81.50
2019-04-29T06:32:28.107Z,80.70
2019-04-29T06:34:56.881Z,79.90
2019-04-29T06:37:25.661Z,79.80
2019-04-29T06:39:54.815Z,79.30
2019-04-29T06:42:23.883Z,79.00
2019-04-29T06:44:52.767Z,79.60
2019-04-29T06:47:21.740Z,80.20
2019-04-29T06:49:50.527Z,78.80
2019-04-29T06:52:19.355Z,78.90
2019-04-29T06:54:48.220Z,78.40
2019-04-29T06:57:17.128Z,78.30
2019-04-29T06:59:47.574Z,77.70
2019-04-29T07:02:16.508Z,77.50
2019-04-29T07:04:45.639Z,77.00
2019-04-29T07:07:14.762Z,76.70
2019-04-29T07:09:43.581Z,77.10
2019-04-29T07:12:13.936Z,77.30
2019-04-29T07:14:42.972Z,76.00
2019-04-29T07:17:11.784Z,76.40
2019-04-29T07:19:40.584Z,75.70
2019-04-29T07:22:09.420Z,76.50
2019-04-29T07:24:38.258Z,76.00
2019-04-29T07:27:07.408Z,75.90
2019-04-29T07:29:38.000Z,74.50
2019-04-29T07:32:09.482Z,73.90
2019-04-29T07:34:39.613Z,72.40
2019-04-29T07:37:08.098Z,71.80
2019-04-29T07:39:37.142Z,71.70
2019-04-29T07:42:06.171Z,71.40
2019-04-29T07:44:44.615Z,72.00
2019-04-29T07:47:13.532Z,72.80
2019-04-29T07:49:42.320Z,73.70
2019-04-29T07:52:14.598Z,74.60
2019-04-29T07:54:41.830Z,73.50
2019-04-29T07:57:12.479Z,73.20
2019-04-29T07:59:41.383Z,72.50
2019-04-29T08:02:10.292Z,72.40
2019-04-29T08:04:40.477Z,71.40
2019-04-29T08:07:09.536Z,70.90
2019-04-29T08:09:39.987Z,70.40
2019-04-29T08:12:10.555Z,69.70
2019-04-29T08:14:39.898Z,69.40
2019-04-29T08:17:08.699Z,69.30
2019-04-29T08:19:37.744Z,69.10
2019-04-29T08:22:06.703Z,68.90
2019-04-29T08:24:37.437Z,69.30
2019-04-29T08:27:06.106Z,68.80
2019-04-29T08:29:35.702Z,69.20
2019-04-29T08:32:05.600Z,68.40
2019-04-29T08:34:34.451Z,68.00
2019-04-29T08:37:03.453Z,65.30
2019-04-29T08:39:32.258Z,63.70
2019-04-29T08:42:03.797Z,64.90
2019-04-29T08:44:59.709Z,66.70
2019-04-29T08:47:32.514Z,65.90
2019-04-29T08:50:01.473Z,66.10
2019-04-29T08:52:30.325Z,66.40
2019-04-29T08:54:59.382Z,65.20
2019-04-29T08:57:31.915Z,66.10
2019-04-29T08:59:58.952Z,65.00
2019-04-29T09:02:34.835Z,65.00
2019-04-29T09:04:58.376Z,65.20
2019-04-29T09:07:27.192Z,64.20
2019-04-29T09:10:01.438Z,65.00
2019-04-29T09:12:29.407Z,66.00
2019-04-29T09:14:57.335Z,64.20
2019-04-29T09:17:26.193Z,64.80
2019-04-29T09:19:54.988Z,65.20
2019-04-29T09:22:25.528Z,63.80
2019-04-29T09:25:12.384Z,64.30
2019-04-29T09:27:44.937Z,63.80
2019-04-29T09:30:14.178Z,64.50
2019-04-29T09:32:43.192Z,65.00
2019-04-29T09:35:12.716Z,64.80
2019-04-29T09:37:41.607Z,66.30
2019-04-29T09:40:13.099Z,64.80
2019-04-29T09:42:56.792Z,64.30
2019-04-29T09:45:46.677Z,63.00
2019-04-29T09:48:15.768Z,63.10
2019-04-29T09:50:44.569Z,62.00
2019-04-29T09:53:13.355Z,59.90
2019-04-29T09:55:42.232Z,58.20
2019-04-29T09:58:11.166Z,58.40
2019-04-29T10:00:49.995Z,58.60
2019-04-29T10:03:29.823Z,59.30
2019-04-29T10:06:27.228Z,58.10
2019-04-29T10:08:56.015Z,57.90
2019-04-29T10:11:24.989Z,58.20
2019-04-29T10:13:53.949Z,58.50
2019-04-29T10:16:51.173Z,58.70
2019-04-29T10:19:36.364Z,59.70
2019-04-29T10:22:05.436Z,59.60
2019-04-29T10:24:34.328Z,58.60
2019-04-29T10:27:03.343Z,59.00
2019-04-29T10:29:32.951Z,58.30
2019-04-29T10:32:06.403Z,59.30
2019-04-29T10:34:33.131Z,60.00
2019-04-29T10:37:02.113Z,61.40
2019-04-29T10:40:10.635Z,61.60
2019-04-29T10:42:36.623Z,61.70
2019-04-29T10:45:23.989Z,62.30
2019-04-29T10:48:20.972Z,60.70
2019-04-29T10:50:52.198Z,58.80
2019-04-29T10:53:21.379Z,57.90
2019-04-29T10:55:50.301Z,57.80
2019-04-29T10:58:22.039Z,58.80
2019-04-29T11:01:38.104Z,59.30
2019-04-29T11:04:08.865Z,59.80
2019-04-29T11:06:38.036Z,58.40
2019-04-29T11:09:27.183Z,57.70
2019-04-29T11:11:56.223Z,57.40
2019-04-29T11:14:25.077Z,56.90
2019-04-29T11:16:53.876Z,55.50
2019-04-29T11:19:22.752Z,56.60
2019-04-29T11:21:51.768Z,59.70
2019-04-29T11:24:40.430Z,62.40
2019-04-29T11:27:22.660Z,64.40
2019-04-29T11:29:51.473Z,62.60
2019-04-29T11:32:30.427Z,63.10
2019-04-29T11:35:24.603Z,62.10
2019-04-29T11:37:59.650Z,62.60
2019-04-29T11:40:42.711Z,64.30
2019-04-29T11:42:56.460Z,61.80
2019-04-29T11:45:26.323Z,61.90
2019-04-29T11:47:55.191Z,60.40
2019-04-29T11:50:30.438Z,59.80
2019-04-29T11:52:59.292Z,58.60
2019-04-29T11:55:28.403Z,58.80
2019-04-29T11:58:03.182Z,62.10
2019-04-29T12:00:51.978Z,66.70
2019-04-29T12:03:22.182Z,69.40
2019-04-29T12:06:02.288Z,70.70
2019-04-29T12:08:31.154Z,69.10
2019-04-29T12:11:07.011Z,69.10
2019-04-29T12:13:40.808Z,67.50
2019-04-29T12:16:24.409Z,69.80
2019-04-29T12:19:17.116Z,70.00
2019-04-29T12:21:45.337Z,73.30
2019-04-29T12:24:14.575Z,74.60
2019-04-29T12:26:44.538Z,75.40
2019-04-29T12:29:19.641Z,70.50
2019-04-29T12:32:01.067Z,68.90
2019-04-29T12:34:39.131Z,70.40
2019-04-29T12:37:17.883Z,66.70
2019-04-29T12:40:09.845Z,65.80
2019-04-29T12:42:56.878Z,65.70
2019-04-29T12:45:33.812Z,67.00
2019-04-29T12:48:02.735Z,67.60
2019-04-29T12:50:31.690Z,70.20
2019-04-29T12:53:00.627Z,73.10
2019-04-29T12:55:45.225Z,75.10
2019-04-29T12:58:19.373Z,81.30
2019-04-29T13:00:49.005Z,85.80
2019-04-29T13:03:38.753Z,89.30
2019-04-29T13:06:24.121Z,90.90
2019-04-29T13:08:53.252Z,90.80
2019-04-29T13:11:36.021Z,91.40
2019-04-29T13:13:56.756Z,90.60
2019-04-29T13:16:55.854Z,90.60
2019-04-29T13:19:29.749Z,90.00
2019-04-29T13:21:57.211Z,90.20
2019-04-29T13:24:26.357Z,90.30
2019-04-29T13:26:55.589Z,88.50
2019-04-29T13:29:31.858Z,88.70
2019-04-29T13:31:55.332Z,85.90
2019-04-29T13:34:35.209Z,86.10
2019-04-29T13:37:07.714Z,84.80
2019-04-29T13:39:39.709Z,83.70
2019-04-29T13:42:09.132Z,83.20
2019-04-29T13:44:55.837Z,82.70
2019-04-29T13:47:28.862Z,81.70
2019-04-29T13:50:17.786Z,83.60
2019-04-29T13:52:36.935Z,84.00
2019-04-29T13:55:17.165Z,87.00
2019-04-29T13:57:37.732Z,85.20
2019-04-29T14:00:32.180Z,86.50
2019-04-29T14:03:11.663Z,88.20
2019-04-29T14:05:41.711Z,90.20
2019-04-29T14:08:09.853Z,88.40
2019-04-29T14:10:38.748Z,86.80
2019-04-29T14:13:15.234Z,85.80
2019-04-29T14:15:40.481Z,84.00
2019-04-29T14:18:11.622Z,85.00
2019-04-29T14:20:40.269Z,86.10
2019-04-29T14:23:09.143Z,85.30
2019-04-29T14:25:38.339Z,87.00
2019-04-29T14:28:07.126Z,88.00
2019-04-29T14:30:38.864Z,82.80
2019-04-29T14:33:07.034Z,84.80
2019-04-29T14:35:48.176Z,85.80
2019-04-29T14:38:14.911Z,85.30
2019-04-29T14:40:44.037Z,86.30
2019-04-29T14:43:28.471Z,87.40
2019-04-29T14:46:23.183Z,85.50
2019-04-29T14:48:59.562Z,87.60
2019-04-29T14:51:28.458Z,87.80
2019-04-29T14:54:01.306Z,88.50
2019-04-29T14:56:28.392Z,87.20
2019-04-29T14:59:06.718Z,87.60
2019-04-29T15:01:35.587Z,87.80
2019-04-29T15:04:17.967Z,89.50
2019-04-29T15:06:38.049Z,90.80
2019-04-29T15:09:16.818Z,89.60
2019-04-29T15:12:03.303Z,89.20
2019-04-29T15:14:41.618Z,88.90
2019-04-29T15:17:23.964Z,89.80
2019-04-29T15:19:59.948Z,90.30
2019-04-29T15:22:32.123Z,90.80
2019-04-29T15:25:01.010Z,90.70
2019-04-29T15:27:30.203Z,89.50
2019-04-29T15:29:58.998Z,90.30
2019-04-29T15:32:28.722Z,90.80
2019-04-29T15:34:57.738Z,91.30
2019-04-29T15:37:26.824Z,91.00
2019-04-29T15:39:58.291Z,92.00
2019-04-29T15:42:26.110Z,91.60
2019-04-29T15:44:55.797Z,91.10
2019-04-29T15:47:30.763Z,91.70
2019-04-29T15:50:00.365Z,91.50
2019-04-29T15:52:27.737Z,91.10
2019-04-29T15:54:56.625Z,91.80
2019-04-29T15:57:25.726Z,92.90
2019-04-29T16:00:00.025Z,92.90
2019-04-29T16:02:25.101Z,92.90
2019-04-29T16:05:04.620Z,93.20
2019-04-29T16:07:55.801Z,93.70
2019-04-29T16:10:45.821Z,93.00
2019-04-29T16:13:14.994Z,94.20
2019-04-29T16:15:44.234Z,94.10
2019-04-29T16:18:14.867Z,94.80
2019-04-29T16:20:43.979Z,94.40
2019-04-29T16:23:12.826Z,95.00
2019-04-29T16:25:46.362Z,95.00
2019-04-29T16:28:12.441Z,95.30
2019-04-29T16:30:41.758Z,95.10
2019-04-29T16:33:13.930Z,95.20
2019-04-29T16:35:41.361Z,95.70
2019-04-29T16:38:11.343Z,96.40
2019-04-29T16:40:44.764Z,96.10
2019-04-29T16:43:27.714Z,96.00
2019-04-29T16:46:02.822Z,96.40
2019-04-29T16:48:31.622Z,96.40
2019-04-29T16:51:00.416Z,96.20
2019-04-29T16:53:29.310Z,96.90
2019-04-29T16:55:58.228Z,96.50
2019-04-29T16:58:27.081Z,95.80
2019-04-29T17:00:56.022Z,96.70
2019-04-29T17:03:26.928Z,96.40
2019-04-29T17:05:55.834Z,96.50
2019-04-29T17:08:29.671Z,96.80
2019-04-29T17:11:12.036Z,96.80
2019-04-29T17:13:39.119Z,97.00
2019-04-29T17:16:11.947Z,97.20
2019-04-29T17:18:41.034Z,97.40
2019-04-29T17:21:09.986Z,97.80
2019-04-29T17:23:38.793Z,97.50
2019-04-29T17:26:07.691Z,97.90
2019-04-29T17:28:43.666Z,98.40
2019-04-29T17:31:41.075Z,98.40
2019-04-29T17:34:54.819Z,97.80
2019-04-29T17:36:53.282Z,98.20
2019-04-29T17:39:23.059Z,98.10
2019-04-29T17:41:51.842Z,97.80
2019-04-29T17:44:51.732Z,97.80
2019-04-29T17:47:47.168Z,97.80
2019-04-29T17:50:32.289Z,98.30
2019-04-29T17:53:01.461Z,98.50
2019-04-29T17:55:42.563Z,98.60
2019-04-29T17:58:21.040Z,98.70
2019-04-29T18:01:18.054Z,98.70
2019-04-29T18:04:05.957Z,98.30
2019-04-29T18:06:42.706Z,98.80
2019-04-29T18:09:30.722Z,99.10
2019-04-29T18:12:04.941Z,99.00
2019-04-29T18:14:40.390Z,99.40
2019-04-29T18:17:06.293Z,99.60
2019-04-29T18:19:55.392Z,99.60
2019-04-29T18:22:49.709Z,99.90
2019-04-29T18:25:46.766Z,99.60
2019-04-29T18:28:16.244Z,99.80
2019-04-29T18:30:49.810Z,99.90
2019-04-29T18:33:19.053Z,99.90
2019-04-29T18:35:47.047Z,99.70
2019-04-29T18:38:15.920Z,99.80
2019-04-29T18:40:46.421Z,99.90
2019-04-29T18:43:15.278Z,99.90
2019-04-29T18:45:55.894Z,99.90
2019-04-29T18:48:18.960Z,99.90
2019-04-29T18:50:45.252Z,99.90
2019-04-29T18:53:15.563Z,99.90
2019-04-29T18:55:45.100Z,99.90
2019-04-29T18:58:16.023Z,99.80
2019-04-29T19:00:46.114Z,99.70
2019-04-29T19:03:17.687Z,99.90
2019-04-29T19:05:50.086Z,99.90
2019-04-29T19:08:23.133Z,99.90
2019-04-29T19:10:51.004Z,99.90
2019-04-29T19:13:20.432Z,99.90
2019-04-29T19:15:49.393Z,99.90
2019-04-29T19:18:21.057Z,99.90
2019-04-29T19:20:52.809Z,99.90
2019-04-29T19:23:22.559Z,99.90
2019-04-29T19:25:51.504Z,99.90
2019-04-29T19:28:29.760Z,99.90
2019-04-29T19:30:51.199Z,99.90
2019-04-29T19:33:20.272Z,99.90
2019-04-29T19:35:49.237Z,99.90
2019-04-29T19:38:18.151Z,99.90
2019-04-29T19:40:47.112Z,99.90
2019-04-29T19:43:18.838Z,99.90
2019-04-29T19:45:48.971Z,99.90
2019-04-29T19:48:17.259Z,99.90
2019-04-29T19:50:50.140Z,99.90
2019-04-29T19:53:16.905Z,99.90
2019-04-29T19:55:46.941Z,99.90
2019-04-29T19:58:16.493Z,99.90
2019-04-29T20:00:47.401Z,99.90
2019-04-29T20:03:23.401Z,99.90
2019-04-29T20:05:52.310Z,99.90
2019-04-29T20:08:46.047Z,99.90
2019-04-29T20:11:10.610Z,99.90
2019-04-29T20:13:31.485Z,99.90
2019-04-29T20:16:24.785Z,99.90
2019-04-29T20:19:16.151Z,99.90
2019-04-29T20:21:40.747Z,99.90
2019-04-29T20:24:15.451Z,99.90
2019-04-29T20:26:43.745Z,99.90
2019-04-29T20:29:12.962Z,99.90
2019-04-29T20:31:48.596Z,99.90
2019-04-29T20:34:12.650Z,99.90
2019-04-29T20:36:43.123Z,99.90
2019-04-29T20:39:16.950Z,99.90
2019-04-29T20:41:47.050Z,99.90
2019-04-29T20:44:16.054Z,99.90
2019-04-29T20:47:06.394Z,99.90
2019-04-29T20:49:16.136Z,99.90
2019-04-29T20:51:51.933Z,99.90
2019-04-29T20:54:21.224Z,99.90
2019-04-29T20:56:56.369Z,99.90
2019-04-29T20:59:21.051Z,99.90
2019-04-29T21:01:56.851Z,99.90
2019-04-29T21:04:33.836Z,99.90
2019-04-29T21:07:01.827Z,99.90
2019-04-29T21:09:27.507Z,99.90
2019-04-29T21:12:25.567Z,99.90
2019-04-29T21:14:59.388Z,99.90
2019-04-29T21:17:31.585Z,99.90
2019-04-29T21:19:58.438Z,99.90
2019-04-29T21:22:27.300Z,99.90
2019-04-29T21:24:57.629Z,99.90
2019-04-29T21:27:26.708Z,99.90
2019-04-29T21:29:55.781Z,99.90
2019-04-29T21:32:25.774Z,99.90
2019-04-29T21:35:20.056Z,99.90
2019-04-29T21:38:06.822Z,99.90
2019-04-29T21:40:41.047Z,99.90
2019-04-29T21:43:17.446Z,99.90
2019-04-29T21:45:48.189Z,99.90
2019-04-29T21:48:14.782Z,99.90
2019-04-29T21:50:44.897Z,99.90
2019-04-29T21:53:15.071Z,99.90
2019-04-29T21:55:45.749Z,99.90
2019-04-29T21:58:14.854Z,99.90
2019-04-29T22:00:45.545Z,99.90
2019-04-29T22:03:15.399Z,99.90
2019-04-29T22:05:45.085Z,99.90
2019-04-29T22:08:16.131Z,99.90
2019-04-29T22:10:45.190Z,99.90
2019-04-29T22:13:14.980Z,99.90
2019-04-29T22:20:10.539Z,99.90
2019-04-29T22:34:25.315Z,99.90
2019-04-29T22:36:59.661Z,99.90
2019-04-29T22:39:26.790Z,99.90
2019-04-29T22:42:23.568Z,99.90
2019-04-29T22:44:52.658Z,99.90
2019-04-29T22:47:23.926Z,99.90
2019-04-29T22:49:54.274Z,99.90
2019-04-29T22:52:25.496Z,99.90
2019-04-29T22:54:57.826Z,99.90
2019-04-29T22:57:28.183Z,99.90
2019-04-29T22:59:57.223Z,99.90
2019-04-29T23:02:28.415Z,99.90
2019-04-29T23:04:56.242Z,99.90
2019-04-29T23:07:25.125Z,99.90
2019-04-29T23:09:55.511Z,99.90
2019-04-29T23:12:25.078Z,99.90
2019-04-29T23:14:53.923Z,99.90
2019-04-29T23:17:22.706Z,99.90
2019-04-29T23:19:55.155Z,99.90
2019-04-29T23:22:46.314Z,99.90
2019-04-29T23:25:29.972Z,99.90
2019-04-29T23:27:59.310Z,99.90
2019-04-29T23:30:28.822Z,99.90
2019-04-29T23:32:57.851Z,99.90
2019-04-29T23:35:26.739Z,99.90
2019-04-29T23:37:57.461Z,99.90
2019-04-29T23:40:26.199Z,99.90
2019-04-29T23:42:55.374Z,99.90
2019-04-29T23:45:25.564Z,99.90
2019-04-29T23:47:55.584Z,99.90
2019-04-29T23:50:25.760Z,99.90
2019-04-29T23:52:55.728Z,99.90
2019-04-29T23:55:27.916Z,99.90
2019-04-29T23:58:07.188Z,99.90
